Strona główna
METAR-TAF:

METAR-TAF

Lotnisko :

Port lotniczy Pori

Pori, Finlandia

Szerokość geograficzna: 61-28N, Długość geograficzna: 021-48E, wysokość: 13 m

Aktualna obserwacja pogody

Raport powstał 26 minut temu, godzina 09:20 UTC
Wiatr 9 kt od południowy wschód
Temperatura -4°C
Wilgotność 86%
Ciśnienie 1008 hPa
Widzialność 10 km lub więcej
Przerywane chmury na wysokości 1000 ft

METAR: EFPO 200920Z AUTO 13009KT 9999 BKN010 M04/M06 Q1008

czas: 11:46 (09:46 UTC)

Prognoza

Raport powstał 15 minut temu, godzina 09:31 UTC
Prognoza ważna od 20 godzina 09 UTC do 20 godzina 18 UTC
Wiatr 9 kt od południowy wschód
Widzialność 10 km lub więcej
Przerywane chmury na wysokości 900 ft
Stopniowe zmiany
od 20 godzina 11 UTC do 20 godzina 13 UTC
Mało chmury na wysokości 1200 ft
Przejściowo
od 20 godzina 15 UTC do 20 godzina 18 UTC
Widzialność: 4000 m
Przerywane chmury na wysokości 800 ft
słaby śnieg

TAF: EFPO 200931Z 2009/2018 13009KT 9999 BKN009 BECMG 2011/2013 FEW012 TEMPO 2015/2018 4000 -SN BKN008

Obserwacja i prognoza pogody dla ponad 4000 lotnisk (raport METAR i TAF).

Dostępne stacje oznaczono żółtymi i czerwonymi punktami na mapie.

Najedź kursorem aby zobaczyć nazwę stacji.

Kliknij aby zobaczyć obserwacje i prognozy pogody.

Aby zmienić mapę: kliknij na zielony przycisk z czarnym krzyżykiem, aby powiększyć; na zielony przycisk z myślnikiem, aby pomniejszyć; na zielone strzałki, aby przejść do map sąsiednich.


METAR-TAF: